Terminal Aerodrome Forecast
Issued by NWS St Louis, MO

Home | Current Version | Previous Version | Text Only | Print | Product List | Glossary On
Versions: 1 2 3 4 5 6 7 8 9 10 11 12 13 14 15 16 17 18 19 20 21 22 23
000
FTUS43 KLSX 302058 AAA
TAFSTL
TAF AMD
KSTL 302058Z 3021/0124 33012KT P6SM VCSH SCT017 OVC035
      TEMPO 3021/3023 5SM -SHRA BKN017
     FM010300 33005KT P6SM BKN015
     FM010700 32005KT P6SM BKN008
     FM011400 30006KT P6SM SCT012 BKN025
      TEMPO 0114/0116 BKN012=

USA.gov is the U.S. government's official web portal to all federal, state and local government web resources and services.